sensor_id;sensor_type;location;lat;lon;timestamp;pressure;altitude;pressure_sealevel;temperature;humidity
14120;BME280;7138;49.246;9.100;2023-07-29T00:00:54;98262.78;;;20.58;100.00
14120;BME280;7138;49.246;9.100;2023-07-29T00:03:21;98264.50;;;20.59;100.00
14120;BME280;7138;49.246;9.100;2023-07-29T00:05:48;98261.16;;;20.56;100.00
14120;BME280;7138;49.246;9.100;2023-07-29T00:08:15;98268.69;;;20.63;100.00
14120;BME280;7138;49.246;9.100;2023-07-29T00:10:41;98266.06;;;20.63;100.00
14120;BME280;7138;49.246;9.100;2023-07-29T00:13:07;98264.16;;;20.67;100.00
14120;BME280;7138;49.246;9.100;2023-07-29T00:15:33;98262.34;;;20.67;100.00
14120;BME280;7138;49.246;9.100;2023-07-29T00:17:59;98261.38;;;20.70;100.00
14120;BME280;7138;49.246;9.100;2023-07-29T00:20:25;98256.88;;;20.72;100.00
14120;BME280;7138;49.246;9.100;2023-07-29T00:22:51;98251.53;;;20.73;100.00
14120;BME280;7138;49.246;9.100;2023-07-29T00:25:21;98248.00;;;20.75;100.00
14120;BME280;7138;49.246;9.100;2023-07-29T00:27:47;98241.97;;;20.73;100.00
14120;BME280;7138;49.246;9.100;2023-07-29T00:30:13;98246.53;;;20.69;100.00
14120;BME280;7138;49.246;9.100;2023-07-29T00:32:39;98244.75;;;20.69;100.00
14120;BME280;7138;49.246;9.100;2023-07-29T00:35:06;98253.53;;;20.68;100.00
14120;BME280;7138;49.246;9.100;2023-07-29T00:37:32;98252.53;;;20.71;100.00
14120;BME280;7138;49.246;9.100;2023-07-29T00:39:58;98241.97;;;20.73;100.00
14120;BME280;7138;49.246;9.100;2023-07-29T00:42:25;98250.72;;;20.73;100.00
14120;BME280;7138;49.246;9.100;2023-07-29T00:44:51;98249.75;;;20.74;100.00
14120;BME280;7138;49.246;9.100;2023-07-29T00:47:18;98244.44;;;20.76;100.00
14120;BME280;7138;49.246;9.100;2023-07-29T00:49:45;98235.91;;;20.70;100.00
14120;BME280;7138;49.246;9.100;2023-07-29T00:52:12;98229.75;;;20.71;100.00
14120;BME280;7138;49.246;9.100;2023-07-29T00:54:38;98239.25;;;20.74;100.00
14120;BME280;7138;49.246;9.100;2023-07-29T00:57:05;98241.72;;;20.77;100.00
14120;BME280;7138;49.246;9.100;2023-07-29T00:59:35;98237.13;;;20.82;100.00
14120;BME280;7138;49.246;9.100;2023-07-29T01:02:02;98229.44;;;20.78;100.00
14120;BME280;7138;49.246;9.100;2023-07-29T01:04:28;98218.03;;;20.79;100.00
14120;BME280;7138;49.246;9.100;2023-07-29T01:07:04;98210.91;;;20.81;100.00
14120;BME280;7138;49.246;9.100;2023-07-29T01:09:41;98208.28;;;20.81;100.00
14120;BME280;7138;49.246;9.100;2023-07-29T01:12:20;98209.97;;;20.82;100.00
14120;BME280;7138;49.246;9.100;2023-07-29T01:15:00;98202.81;;;20.85;100.00
14120;BME280;7138;49.246;9.100;2023-07-29T01:17:33;98207.50;;;20.79;100.00
14120;BME280;7138;49.246;9.100;2023-07-29T01:20:04;98198.81;;;20.77;100.00
14120;BME280;7138;49.246;9.100;2023-07-29T01:22:33;98202.31;;;20.77;100.00
14120;BME280;7138;49.246;9.100;2023-07-29T01:25:01;98196.19;;;20.77;100.00
14120;BME280;7138;49.246;9.100;2023-07-29T01:27:27;98194.53;;;20.76;100.00
14120;BME280;7138;49.246;9.100;2023-07-29T01:29:54;98204.94;;;20.77;100.00
14120;BME280;7138;49.246;9.100;2023-07-29T01:32:28;98207.66;;;20.76;100.00
14120;BME280;7138;49.246;9.100;2023-07-29T01:35:07;98197.91;;;20.78;100.00
14120;BME280;7138;49.246;9.100;2023-07-29T01:37:38;98194.53;;;20.76;100.00
14120;BME280;7138;49.246;9.100;2023-07-29T01:40:09;98189.25;;;20.76;100.00
14120;BME280;7138;49.246;9.100;2023-07-29T01:42:36;98184.22;;;20.71;100.00
14120;BME280;7138;49.246;9.100;2023-07-29T01:45:03;98187.69;;;20.71;100.00
14120;BME280;7138;49.246;9.100;2023-07-29T01:47:30;98182.38;;;20.73;100.00
14120;BME280;7138;49.246;9.100;2023-07-29T01:49:56;98185.94;;;20.72;100.00
14120;BME280;7138;49.246;9.100;2023-07-29T01:52:22;98183.31;;;20.72;100.00
14120;BME280;7138;49.246;9.100;2023-07-29T01:54:48;98177.94;;;20.73;100.00
14120;BME280;7138;49.246;9.100;2023-07-29T01:57:15;98178.75;;;20.76;100.00
14120;BME280;7138;49.246;9.100;2023-07-29T01:59:41;98172.53;;;20.77;100.00
14120;BME280;7138;49.246;9.100;2023-07-29T02:02:07;98169.00;;;20.78;100.00
14120;BME280;7138;49.246;9.100;2023-07-29T02:04:33;98172.38;;;20.80;100.00
14120;BME280;7138;49.246;9.100;2023-07-29T02:06:59;98173.25;;;20.80;100.00
14120;BME280;7138;49.246;9.100;2023-07-29T02:09:25;98168.78;;;20.82;100.00
14120;BME280;7138;49.246;9.100;2023-07-29T02:11:51;98167.06;;;20.81;100.00
14120;BME280;7138;49.246;9.100;2023-07-29T02:14:18;98165.47;;;20.79;100.00
14120;BME280;7138;49.246;9.100;2023-07-29T02:16:44;98165.81;;;20.71;100.00
14120;BME280;7138;49.246;9.100;2023-07-29T02:19:10;98160.88;;;20.65;100.00
14120;BME280;7138;49.246;9.100;2023-07-29T02:21:36;98161.88;;;20.62;100.00
14120;BME280;7138;49.246;9.100;2023-07-29T02:24:02;98163.66;;;20.62;100.00
14120;BME280;7138;49.246;9.100;2023-07-29T02:26:28;98161.13;;;20.60;100.00
14120;BME280;7138;49.246;9.100;2023-07-29T02:28:53;98167.50;;;20.55;100.00
14120;BME280;7138;49.246;9.100;2023-07-29T02:31:25;98166.59;;;20.56;100.00
14120;BME280;7138;49.246;9.100;2023-07-29T02:33:51;98164.72;;;20.58;100.00
14120;BME280;7138;49.246;9.100;2023-07-29T02:36:18;98117.81;;;20.33;100.00
14120;BME280;7138;49.246;9.100;2023-07-29T02:38:44;98167.28;;;20.59;100.00
14120;BME280;7138;49.246;9.100;2023-07-29T02:41:10;98162.09;;;20.58;100.00
14120;BME280;7138;49.246;9.100;2023-07-29T02:43:38;98166.69;;;20.54;100.00
14120;BME280;7138;49.246;9.100;2023-07-29T02:46:04;98170.22;;;20.53;100.00
14120;BME280;7138;49.246;9.100;2023-07-29T02:48:31;98172.69;;;20.56;100.00
14120;BME280;7138;49.246;9.100;2023-07-29T02:50:57;98162.19;;;20.56;100.00
14120;BME280;7138;49.246;9.100;2023-07-29T02:53:24;98157.84;;;20.55;100.00
14120;BME280;7138;49.246;9.100;2023-07-29T02:55:50;98166.53;;;20.57;100.00
14120;BME280;7138;49.246;9.100;2023-07-29T02:58:16;98149.75;;;20.60;100.00
14120;BME280;7138;49.246;9.100;2023-07-29T03:00:42;98145.34;;;20.60;100.00
14120;BME280;7138;49.246;9.100;2023-07-29T03:03:09;98148.03;;;20.59;100.00
14120;BME280;7138;49.246;9.100;2023-07-29T03:05:36;98147.97;;;20.60;100.00
14120;BME280;7138;49.246;9.100;2023-07-29T03:08:03;98138.28;;;20.61;100.00
14120;BME280;7138;49.246;9.100;2023-07-29T03:10:29;98139.16;;;20.61;100.00
14120;BME280;7138;49.246;9.100;2023-07-29T03:12:56;98142.56;;;20.63;100.00
14120;BME280;7138;49.246;9.100;2023-07-29T03:15:23;98142.41;;;20.66;100.00
14120;BME280;7138;49.246;9.100;2023-07-29T03:17:50;98146.56;;;20.70;100.00
14120;BME280;7138;49.246;9.100;2023-07-29T03:20:16;98155.41;;;20.69;100.00
14120;BME280;7138;49.246;9.100;2023-07-29T03:22:44;98158.78;;;20.71;100.00
14120;BME280;7138;49.246;9.100;2023-07-29T03:25:10;98162.28;;;20.72;100.00
14120;BME280;7138;49.246;9.100;2023-07-29T03:27:36;98150.84;;;20.73;100.00
14120;BME280;7138;49.246;9.100;2023-07-29T03:30:03;98143.63;;;20.77;100.00
14120;BME280;7138;49.246;9.100;2023-07-29T03:32:29;98135.75;;;20.77;100.00
14120;BME280;7138;49.246;9.100;2023-07-29T03:34:55;98130.50;;;20.77;100.00
14120;BME280;7138;49.246;9.100;2023-07-29T03:37:21;98126.03;;;20.79;100.00
14120;BME280;7138;49.246;9.100;2023-07-29T03:39:48;98124.31;;;20.78;100.00
14120;BME280;7138;49.246;9.100;2023-07-29T03:42:14;98121.69;;;20.78;100.00
14120;BME280;7138;49.246;9.100;2023-07-29T03:44:40;98117.50;;;20.73;100.00
14120;BME280;7138;49.246;9.100;2023-07-29T03:47:06;98122.44;;;20.80;100.00
14120;BME280;7138;49.246;9.100;2023-07-29T03:49:32;98118.00;;;20.82;100.00
14120;BME280;7138;49.246;9.100;2023-07-29T03:51:58;98117.03;;;20.83;100.00
14120;BME280;7138;49.246;9.100;2023-07-29T03:54:23;98109.16;;;20.83;100.00
14120;BME280;7138;49.246;9.100;2023-07-29T03:56:50;98098.81;;;20.80;100.00
14120;BME280;7138;49.246;9.100;2023-07-29T03:59:17;98103.22;;;20.79;100.00
14120;BME280;7138;49.246;9.100;2023-07-29T04:01:43;98112.88;;;20.79;100.00
14120;BME280;7138;49.246;9.100;2023-07-29T04:04:09;98111.13;;;20.79;100.00
14120;BME280;7138;49.246;9.100;2023-07-29T04:06:35;98107.00;;;20.73;100.00
14120;BME280;7138;49.246;9.100;2023-07-29T04:09:01;98107.78;;;20.76;100.00
14120;BME280;7138;49.246;9.100;2023-07-29T04:11:27;98109.47;;;20.77;100.00
14120;BME280;7138;49.246;9.100;2023-07-29T04:13:54;98120.84;;;20.77;100.00
14120;BME280;7138;49.246;9.100;2023-07-29T04:16:23;98125.94;;;20.80;100.00
14120;BME280;7138;49.246;9.100;2023-07-29T04:18:48;98119.81;;;20.80;100.00
14120;BME280;7138;49.246;9.100;2023-07-29T04:21:14;98120.84;;;20.77;100.00
14120;BME280;7138;49.246;9.100;2023-07-29T04:23:40;98100.97;;;20.71;100.00
14120;BME280;7138;49.246;9.100;2023-07-29T04:26:06;98103.00;;;20.66;100.00
14120;BME280;7138;49.246;9.100;2023-07-29T04:28:32;98101.34;;;20.64;100.00
14120;BME280;7138;49.246;9.100;2023-07-29T04:30:59;98102.22;;;20.64;100.00
14120;BME280;7138;49.246;9.100;2023-07-29T04:33:25;98102.22;;;20.64;100.00
14120;BME280;7138;49.246;9.100;2023-07-29T04:35:51;98108.25;;;20.66;100.00
14120;BME280;7138;49.246;9.100;2023-07-29T04:38:17;98125.56;;;20.70;100.00
14120;BME280;7138;49.246;9.100;2023-07-29T04:40:42;98121.94;;;20.73;100.00
14120;BME280;7138;49.246;9.100;2023-07-29T04:43:08;98122.69;;;20.75;100.00
14120;BME280;7138;49.246;9.100;2023-07-29T04:45:34;98126.09;;;20.77;100.00
14120;BME280;7138;49.246;9.100;2023-07-29T04:48:02;98133.91;;;20.79;100.00
14120;BME280;7138;49.246;9.100;2023-07-29T04:50:28;98132.22;;;20.78;100.00
14120;BME280;7138;49.246;9.100;2023-07-29T04:52:53;98132.22;;;20.78;100.00
14120;BME280;7138;49.246;9.100;2023-07-29T04:55:19;98127.03;;;20.76;100.00
14120;BME280;7138;49.246;9.100;2023-07-29T04:57:45;98134.13;;;20.74;100.00
14120;BME280;7138;49.246;9.100;2023-07-29T05:00:11;98145.03;;;20.66;100.00
14120;BME280;7138;49.246;9.100;2023-07-29T05:02:37;98152.38;;;20.60;100.00
14120;BME280;7138;49.246;9.100;2023-07-29T05:05:05;98152.53;;;20.57;100.00
14120;BME280;7138;49.246;9.100;2023-07-29T05:07:31;98143.09;;;20.53;100.00
14120;BME280;7138;49.246;9.100;2023-07-29T05:09:57;98137.94;;;20.51;100.00
14120;BME280;7138;49.246;9.100;2023-07-29T05:12:23;98161.72;;;20.48;100.00
14120;BME280;7138;49.246;9.100;2023-07-29T05:14:49;98156.63;;;20.45;100.00
14120;BME280;7138;49.246;9.100;2023-07-29T05:17:16;98157.53;;;20.44;100.00
14120;BME280;7138;49.246;9.100;2023-07-29T05:19:41;98149.81;;;20.41;100.00
14120;BME280;7138;49.246;9.100;2023-07-29T05:22:09;98146.41;;;20.39;100.00
14120;BME280;7138;49.246;9.100;2023-07-29T05:24:35;98133.13;;;20.42;100.00
14120;BME280;7138;49.246;9.100;2023-07-29T05:27:01;98146.16;;;20.44;100.00
14120;BME280;7138;49.246;9.100;2023-07-29T05:29:27;98141.63;;;20.47;100.00
14120;BME280;7138;49.246;9.100;2023-07-29T05:31:53;98143.19;;;20.51;100.00
14120;BME280;7138;49.246;9.100;2023-07-29T05:34:19;98138.69;;;20.53;100.00
14120;BME280;7138;49.246;9.100;2023-07-29T05:36:45;98135.00;;;20.57;100.00
14120;BME280;7138;49.246;9.100;2023-07-29T05:39:13;98130.72;;;20.55;100.00
14120;BME280;7138;49.246;9.100;2023-07-29T05:41:39;98133.75;;;20.64;100.00
14120;BME280;7138;49.246;9.100;2023-07-29T05:44:05;98138.09;;;20.65;100.00
14120;BME280;7138;49.246;9.100;2023-07-29T05:46:30;98144.81;;;20.71;100.00
14120;BME280;7138;49.246;9.100;2023-07-29T05:48:56;98145.75;;;20.70;100.00
14120;BME280;7138;49.246;9.100;2023-07-29T05:51:22;98152.47;;;20.76;100.00
14120;BME280;7138;49.246;9.100;2023-07-29T05:53:48;98158.44;;;20.79;100.00
14120;BME280;7138;49.246;9.100;2023-07-29T05:56:15;98150.38;;;20.82;100.00
14120;BME280;7138;49.246;9.100;2023-07-29T05:58:41;98147.75;;;20.82;100.00
14120;BME280;7138;49.246;9.100;2023-07-29T06:01:07;98144.13;;;20.85;100.00
14120;BME280;7138;49.246;9.100;2023-07-29T06:03:33;98146.59;;;20.88;100.00
14120;BME280;7138;49.246;9.100;2023-07-29T06:05:58;98140.38;;;20.89;100.00
14120;BME280;7138;49.246;9.100;2023-07-29T06:08:24;98131.59;;;20.90;100.00
14120;BME280;7138;49.246;9.100;2023-07-29T06:10:54;98137.59;;;20.92;100.00
14120;BME280;7138;49.246;9.100;2023-07-29T06:13:21;98133.91;;;20.96;100.00
14120;BME280;7138;49.246;9.100;2023-07-29T06:15:47;98128.31;;;21.02;100.00
14120;BME280;7138;49.246;9.100;2023-07-29T06:18:13;98133.25;;;21.08;100.00
14120;BME280;7138;49.246;9.100;2023-07-29T06:20:38;98144.41;;;21.13;100.00
14120;BME280;7138;49.246;9.100;2023-07-29T06:23:04;98138.94;;;21.17;100.00
14120;BME280;7138;49.246;9.100;2023-07-29T06:25:30;98138.84;;;21.19;100.00
14120;BME280;7138;49.246;9.100;2023-07-29T06:27:56;98137.75;;;21.23;100.00
14120;BME280;7138;49.246;9.100;2023-07-29T06:30:25;98134.81;;;21.29;100.00
14120;BME280;7138;49.246;9.100;2023-07-29T06:32:51;98135.56;;;21.31;100.00
14120;BME280;7138;49.246;9.100;2023-07-29T06:35:17;98129.22;;;21.35;100.00
14120;BME280;7138;49.246;9.100;2023-07-29T06:37:43;98148.84;;;21.45;100.00
14120;BME280;7138;49.246;9.100;2023-07-29T06:40:09;98151.91;;;21.53;100.00
14120;BME280;7138;49.246;9.100;2023-07-29T06:42:35;98155.94;;;21.60;100.00
14120;BME280;7138;49.246;9.100;2023-07-29T06:45:04;98163.97;;;21.57;100.00
14120;BME280;7138;49.246;9.100;2023-07-29T06:47:31;98164.75;;;21.59;100.00
14120;BME280;7138;49.246;9.100;2023-07-29T06:49:57;98171.44;;;21.65;100.00
14120;BME280;7138;49.246;9.100;2023-07-29T06:52:23;98172.91;;;21.70;100.00
14120;BME280;7138;49.246;9.100;2023-07-29T06:54:48;98183.25;;;21.73;100.00
14120;BME280;7138;49.246;9.100;2023-07-29T06:57:14;98170.19;;;21.72;100.00
14120;BME280;7138;49.246;9.100;2023-07-29T06:59:40;98172.41;;;21.79;100.00
14120;BME280;7138;49.246;9.100;2023-07-29T07:02:07;98168.84;;;21.80;100.00
14120;BME280;7138;49.246;9.100;2023-07-29T07:04:34;98179.03;;;21.87;100.00
14120;BME280;7138;49.246;9.100;2023-07-29T07:07:00;98176.22;;;21.91;100.00
14120;BME280;7138;49.246;9.100;2023-07-29T07:09:26;98181.47;;;21.91;100.00
14120;BME280;7138;49.246;9.100;2023-07-29T07:11:52;98174.34;;;21.93;100.00
14120;BME280;7138;49.246;9.100;2023-07-29T07:14:18;98176.63;;;21.99;100.00
14120;BME280;7138;49.246;9.100;2023-07-29T07:16:44;98171.94;;;22.04;100.00
14120;BME280;7138;49.246;9.100;2023-07-29T07:19:10;98178.69;;;22.10;100.00
14120;BME280;7138;49.246;9.100;2023-07-29T07:21:38;98179.28;;;22.15;100.00
14120;BME280;7138;49.246;9.100;2023-07-29T07:24:04;98183.50;;;22.17;100.00
14120;BME280;7138;49.246;9.100;2023-07-29T07:26:30;98181.63;;;22.19;100.00
14120;BME280;7138;49.246;9.100;2023-07-29T07:28:56;98173.66;;;22.21;100.00
14120;BME280;7138;49.246;9.100;2023-07-29T07:31:22;98170.09;;;22.22;100.00
14120;BME280;7138;49.246;9.100;2023-07-29T07:33:48;98162.03;;;22.25;100.00
14120;BME280;7138;49.246;9.100;2023-07-29T07:36:14;98161.06;;;22.26;100.00
14120;BME280;7138;49.246;9.100;2023-07-29T07:38:42;98163.28;;;22.33;100.00
14120;BME280;7138;49.246;9.100;2023-07-29T07:41:08;98165.13;;;22.47;100.00
14120;BME280;7138;49.246;9.100;2023-07-29T07:43:34;98161.59;;;22.62;100.00
14120;BME280;7138;49.246;9.100;2023-07-29T07:46:01;98158.22;;;22.76;100.00
14120;BME280;7138;49.246;9.100;2023-07-29T07:48:27;98160.81;;;22.92;100.00
14120;BME280;7138;49.246;9.100;2023-07-29T07:50:53;98163.91;;;22.98;100.00
14120;BME280;7138;49.246;9.100;2023-07-29T07:53:19;98158.38;;;23.03;100.00
14120;BME280;7138;49.246;9.100;2023-07-29T07:55:46;98168.63;;;23.07;100.00
14120;BME280;7138;49.246;9.100;2023-07-29T07:58:12;98173.38;;;23.16;100.00
14120;BME280;7138;49.246;9.100;2023-07-29T08:00:39;98169.34;;;23.25;100.00
14120;BME280;7138;49.246;9.100;2023-07-29T08:03:04;98166.41;;;23.29;100.00
14120;BME280;7138;49.246;9.100;2023-07-29T08:05:30;98165.00;;;23.38;100.00
14120;BME280;7138;49.246;9.100;2023-07-29T08:07:57;98150.91;;;23.39;100.00
14120;BME280;7138;49.246;9.100;2023-07-29T08:10:23;98158.38;;;23.47;100.00
14120;BME280;7138;49.246;9.100;2023-07-29T08:12:50;98163.16;;;23.54;100.00
14120;BME280;7138;49.246;9.100;2023-07-29T08:15:16;98156.56;;;23.61;100.00
14120;BME280;7138;49.246;9.100;2023-07-29T08:17:42;98166.94;;;23.64;100.00
14120;BME280;7138;49.246;9.100;2023-07-29T08:20:09;98178.25;;;23.52;100.00
14120;BME280;7138;49.246;9.100;2023-07-29T08:22:35;98168.59;;;23.37;100.00
14120;BME280;7138;49.246;9.100;2023-07-29T08:25:01;98179.59;;;23.29;100.00
14120;BME280;7138;49.246;9.100;2023-07-29T08:27:27;98177.81;;;23.30;100.00
14120;BME280;7138;49.246;9.100;2023-07-29T08:29:55;98179.97;;;23.23;100.00
14120;BME280;7138;49.246;9.100;2023-07-29T08:32:21;98183.28;;;23.27;100.00
14120;BME280;7138;49.246;9.100;2023-07-29T08:34:46;98197.16;;;23.30;100.00
14120;BME280;7138;49.246;9.100;2023-07-29T08:37:12;98196.41;;;23.28;100.00
14120;BME280;7138;49.246;9.100;2023-07-29T08:39:38;98199.41;;;23.36;100.00
14120;BME280;7138;49.246;9.100;2023-07-29T08:42:08;98201.63;;;23.44;100.00
14120;BME280;7138;49.246;9.100;2023-07-29T08:44:43;98197.31;;;23.43;100.00
14120;BME280;7138;49.246;9.100;2023-07-29T08:47:11;98193.06;;;23.41;100.00
14120;BME280;7138;49.246;9.100;2023-07-29T08:49:39;98203.19;;;23.32;100.00
14120;BME280;7138;49.246;9.100;2023-07-29T08:52:07;98204.03;;;23.33;100.00
14120;BME280;7138;49.246;9.100;2023-07-29T08:54:33;98208.47;;;23.32;100.00
14120;BME280;7138;49.246;9.100;2023-07-29T08:57:00;98195.00;;;23.37;100.00
14120;BME280;7138;49.246;9.100;2023-07-29T08:59:28;98206.84;;;23.30;100.00
14120;BME280;7138;49.246;9.100;2023-07-29T09:01:54;98205.06;;;23.30;100.00
14120;BME280;7138;49.246;9.100;2023-07-29T09:04:24;98200.97;;;23.41;100.00
14120;BME280;7138;49.246;9.100;2023-07-29T09:06:51;98196.56;;;23.55;100.00
14120;BME280;7138;49.246;9.100;2023-07-29T09:09:19;98204.66;;;23.66;100.00
14120;BME280;7138;49.246;9.100;2023-07-29T09:11:46;98203.44;;;23.72;100.00
14120;BME280;7138;49.246;9.100;2023-07-29T09:14:13;98199.00;;;23.72;100.00
14120;BME280;7138;49.246;9.100;2023-07-29T09:16:39;98203.81;;;23.80;100.00
14120;BME280;7138;49.246;9.100;2023-07-29T09:19:05;98196.16;;;23.75;100.00
14120;BME280;7138;49.246;9.100;2023-07-29T09:21:33;98193.53;;;23.75;100.00
14120;BME280;7138;49.246;9.100;2023-07-29T09:24:03;98181.84;;;23.79;100.00
14120;BME280;7138;49.246;9.100;2023-07-29T09:26:30;98179.00;;;23.82;100.00
14120;BME280;7138;49.246;9.100;2023-07-29T09:28:58;98195.13;;;23.78;100.00
14120;BME280;7138;49.246;9.100;2023-07-29T09:31:26;98192.78;;;23.73;100.00
14120;BME280;7138;49.246;9.100;2023-07-29T09:33:56;98198.72;;;23.77;100.00
14120;BME280;7138;49.246;9.100;2023-07-29T09:36:23;98195.53;;;23.86;100.00
14120;BME280;7138;49.246;9.100;2023-07-29T09:38:53;98193.72;;;24.01;100.00
14120;BME280;7138;49.246;9.100;2023-07-29T09:41:22;98197.84;;;24.19;100.00
14120;BME280;7138;49.246;9.100;2023-07-29T09:43:56;98195.81;;;24.36;100.00
14120;BME280;7138;49.246;9.100;2023-07-29T09:46:24;98200.22;;;24.50;99.27
14120;BME280;7138;49.246;9.100;2023-07-29T09:48:53;98189.25;;;24.56;96.78
14120;BME280;7138;49.246;9.100;2023-07-29T09:51:23;98194.34;;;24.59;97.11
14120;BME280;7138;49.246;9.100;2023-07-29T09:53:51;98208.59;;;24.57;94.93
14120;BME280;7138;49.246;9.100;2023-07-29T09:56:24;98190.91;;;24.71;98.31
14120;BME280;7138;49.246;9.100;2023-07-29T09:58:51;98192.94;;;24.80;98.14
14120;BME280;7138;49.246;9.100;2023-07-29T10:01:18;98188.09;;;24.87;96.78
14120;BME280;7138;49.246;9.100;2023-07-29T10:03:44;98195.28;;;24.85;97.34
14120;BME280;7138;49.246;9.100;2023-07-29T10:06:11;98203.59;;;24.79;95.95
14120;BME280;7138;49.246;9.100;2023-07-29T10:08:39;98201.72;;;24.54;94.92
14120;BME280;7138;49.246;9.100;2023-07-29T10:11:09;98206.34;;;24.51;97.38
14120;BME280;7138;49.246;9.100;2023-07-29T10:13:36;98202.06;;;24.35;97.35
14120;BME280;7138;49.246;9.100;2023-07-29T10:16:03;98195.31;;;24.44;99.71
14120;BME280;7138;49.246;9.100;2023-07-29T10:18:32;98188.34;;;24.43;96.86
14120;BME280;7138;49.246;9.100;2023-07-29T10:21:00;98175.84;;;24.59;99.25
14120;BME280;7138;49.246;9.100;2023-07-29T10:23:28;98176.19;;;24.67;99.33
14120;BME280;7138;49.246;9.100;2023-07-29T10:26:04;98174.72;;;24.76;96.92
14120;BME280;7138;49.246;9.100;2023-07-29T10:28:33;98183.66;;;24.87;96.75
14120;BME280;7138;49.246;9.100;2023-07-29T10:31:04;98176.81;;;24.97;97.80
14120;BME280;7138;49.246;9.100;2023-07-29T10:33:33;98178.84;;;25.19;98.19
14120;BME280;7138;49.246;9.100;2023-07-29T10:36:00;98184.78;;;25.23;95.41
14120;BME280;7138;49.246;9.100;2023-07-29T10:38:27;98177.16;;;25.31;94.19
14120;BME280;7138;49.246;9.100;2023-07-29T10:40:55;98177.38;;;25.40;95.66
14120;BME280;7138;49.246;9.100;2023-07-29T10:43:26;98182.47;;;25.43;94.28
14120;BME280;7138;49.246;9.100;2023-07-29T10:45:55;98182.78;;;25.39;94.45
14120;BME280;7138;49.246;9.100;2023-07-29T10:48:45;98184.28;;;25.43;95.20
14120;BME280;7138;49.246;9.100;2023-07-29T10:51:25;98185.66;;;25.48;95.05
14120;BME280;7138;49.246;9.100;2023-07-29T10:53:56;98178.66;;;25.60;95.79
14120;BME280;7138;49.246;9.100;2023-07-29T10:56:28;98187.53;;;25.84;94.00
14120;BME280;7138;49.246;9.100;2023-07-29T10:59:03;98185.66;;;25.86;94.20
14120;BME280;7138;49.246;9.100;2023-07-29T11:01:56;98186.16;;;25.91;93.14
14120;BME280;7138;49.246;9.100;2023-07-29T11:04:28;98176.50;;;25.90;92.97
14120;BME280;7138;49.246;9.100;2023-07-29T11:07:26;98190.97;;;25.86;91.14
14120;BME280;7138;49.246;9.100;2023-07-29T11:09:59;98206.22;;;25.70;94.25
14120;BME280;7138;49.246;9.100;2023-07-29T11:12:43;98205.25;;;25.46;97.49
14120;BME280;7138;49.246;9.100;2023-07-29T11:15:22;98196.63;;;25.30;99.20
14120;BME280;7138;49.246;9.100;2023-07-29T11:17:52;98191.97;;;25.21;100.00
14120;BME280;7138;49.246;9.100;2023-07-29T11:20:20;98201.72;;;25.20;100.00
14120;BME280;7138;49.246;9.100;2023-07-29T11:22:47;98199.19;;;25.19;100.00
14120;BME280;7138;49.246;9.100;2023-07-29T11:25:15;98181.81;;;25.27;100.00
14120;BME280;7138;49.246;9.100;2023-07-29T11:27:42;98179.69;;;25.32;100.00
14120;BME280;7138;49.246;9.100;2023-07-29T11:30:10;98160.22;;;25.33;100.00
14120;BME280;7138;49.246;9.100;2023-07-29T11:32:37;98172.41;;;25.36;100.00
14120;BME280;7138;49.246;9.100;2023-07-29T11:35:08;98175.03;;;25.36;100.00
14120;BME280;7138;49.246;9.100;2023-07-29T11:37:36;98163.81;;;25.45;100.00
14120;BME280;7138;49.246;9.100;2023-07-29T11:40:03;98164.91;;;25.55;100.00
14120;BME280;7138;49.246;9.100;2023-07-29T11:42:32;98162.25;;;25.55;98.70
14120;BME280;7138;49.246;9.100;2023-07-29T11:44:59;98157.47;;;25.60;100.00
14120;BME280;7138;49.246;9.100;2023-07-29T11:47:25;98173.16;;;25.63;100.00
14120;BME280;7138;49.246;9.100;2023-07-29T11:49:52;98165.94;;;25.78;100.00
14120;BME280;7138;49.246;9.100;2023-07-29T11:52:19;98163.69;;;25.84;97.88
14120;BME280;7138;49.246;9.100;2023-07-29T11:54:47;98155.56;;;25.75;93.97
14120;BME280;7138;49.246;9.100;2023-07-29T11:57:14;98157.59;;;25.84;95.03
14120;BME280;7138;49.246;9.100;2023-07-29T11:59:44;98153.38;;;25.56;89.77
14120;BME280;7138;49.246;9.100;2023-07-29T12:02:14;98158.53;;;25.45;91.56
14120;BME280;7138;49.246;9.100;2023-07-29T12:04:43;98150.69;;;25.43;92.15
14120;BME280;7138;49.246;9.100;2023-07-29T12:07:10;98152.50;;;25.43;92.00
14120;BME280;7138;49.246;9.100;2023-07-29T12:09:40;98145.91;;;25.36;93.40
14120;BME280;7138;49.246;9.100;2023-07-29T12:12:07;98163.09;;;25.43;92.02
14120;BME280;7138;49.246;9.100;2023-07-29T12:14:34;98153.97;;;25.47;92.05
14120;BME280;7138;49.246;9.100;2023-07-29T12:17:02;98151.75;;;25.53;94.07
14120;BME280;7138;49.246;9.100;2023-07-29T12:19:32;98144.56;;;25.68;95.21
14120;BME280;7138;49.246;9.100;2023-07-29T12:21:58;98142.75;;;25.69;92.31
14120;BME280;7138;49.246;9.100;2023-07-29T12:24:24;98158.63;;;25.69;89.04
14120;BME280;7138;49.246;9.100;2023-07-29T12:26:52;98149.66;;;25.71;88.22
14120;BME280;7138;49.246;9.100;2023-07-29T12:29:19;98152.38;;;25.70;88.58
14120;BME280;7138;49.246;9.100;2023-07-29T12:31:48;98154.09;;;25.71;86.94
14120;BME280;7138;49.246;9.100;2023-07-29T12:34:18;98158.84;;;25.78;88.39
14120;BME280;7138;49.246;9.100;2023-07-29T12:36:46;98153.84;;;25.86;89.13
14120;BME280;7138;49.246;9.100;2023-07-29T12:39:20;98152.34;;;25.95;86.22
14120;BME280;7138;49.246;9.100;2023-07-29T12:41:47;98152.56;;;25.92;85.31
14120;BME280;7138;49.246;9.100;2023-07-29T12:44:15;98168.56;;;25.90;82.40
14120;BME280;7138;49.246;9.100;2023-07-29T12:46:41;98160.84;;;25.87;79.58
14120;BME280;7138;49.246;9.100;2023-07-29T12:49:07;98166.13;;;25.87;81.85
14120;BME280;7138;49.246;9.100;2023-07-29T12:51:33;98173.56;;;25.82;81.50
14120;BME280;7138;49.246;9.100;2023-07-29T12:54:00;98159.16;;;25.86;80.47
14120;BME280;7138;49.246;9.100;2023-07-29T12:56:26;98157.97;;;25.90;82.07
14120;BME280;7138;49.246;9.100;2023-07-29T12:58:52;98152.22;;;25.96;80.87
14120;BME280;7138;49.246;9.100;2023-07-29T13:01:22;98153.41;;;26.05;80.74
14120;BME280;7138;49.246;9.100;2023-07-29T13:03:49;98149.03;;;26.17;82.88